Methoni, Greece
Current Conditions -  °F | °C
As of 11:20 AM on Thursday 18 Dec 2014 (Local Time) from LGKL Reporting Station
Thunderstorm Thunderstorm  
Wind Chill: 50°   Ceiling: 8000
Heat Index: 50°   Visibility: 1.2mi
Dew Point: 48°   Wind: 0mph
Humidity: 94%   Direction: NA
Pressure: 30.06"   Gusts: NA
Location:  36.82°N, 21.7°E
Report Text: LGKL 180820Z 00000KT 2000 TSRA FEW020CB SCT025 BKN080 10/09 Q1018
Loading
Personal Weather Stations






























Interactive Weather Map New forecast layout! Learn more

10-Day Weather Forecast

Advertisements
Track Severe Weather on mobile